Time;durP1;ratioP1;P1;durP2;ratioP2;P2;SDS_P1;SDS_P2;PMS_P1;PMS_P2;Temp;Humidity;BMP_temperature;BMP_pressure;BME280_temperature;BME280_humidity;BME280_pressure;Samples;Min_cycle;Max_cycle;Signal;HPM_P1;HPM_P2
2022/08/25 00:01:54;;;;;;;6.13;3.47;;;;;;;17.77;100.00;96412.34;5058880;28;20212;-70
2022/08/25 00:04:23;;;;;;;5.25;3.25;;;;;;;17.75;100.00;96411.72;5057910;28;20228;-70
2022/08/25 00:06:51;;;;;;;6.32;3.60;;;;;;;17.66;100.00;96410.38;5058928;28;20208;-70
2022/08/25 00:09:20;;;;;;;8.23;3.50;;;;;;;17.75;100.00;96403.72;5058346;28;20576;-70
2022/08/25 00:11:48;;;;;;;8.07;3.67;;;;;;;17.74;100.00;96394.94;5058354;28;20471;-70
2022/08/25 00:14:18;;;;;;;5.60;3.40;;;;;;;17.75;100.00;96403.72;5057574;28;20256;-70
2022/08/25 00:16:44;;;;;;;6.30;3.50;;;;;;;17.69;100.00;96404.59;5058711;28;20204;-70
2022/08/25 00:19:14;;;;;;;11.90;4.15;;;;;;;17.80;100.00;96407.38;5058146;28;20208;-70
2022/08/25 00:21:43;;;;;;;6.50;3.38;;;;;;;17.81;100.00;96408.22;5057936;28;20664;-70
2022/08/25 00:24:10;;;;;;;6.90;3.50;;;;;;;17.69;100.00;96409.91;5057145;28;20235;-70
2022/08/25 00:26:40;;;;;;;6.88;3.75;;;;;;;17.79;100.00;96410.25;5058330;28;20208;-70
2022/08/25 00:29:07;;;;;;;8.15;3.38;;;;;;;17.56;100.00;96410.00;5057739;28;20208;-70
2022/08/25 00:31:34;;;;;;;6.07;3.35;;;;;;;17.51;100.00;96415.16;5058071;28;20225;-70
2022/08/25 00:34:01;;;;;;;6.60;3.30;;;;;;;17.59;100.00;96412.28;5056926;28;20231;-70
2022/08/25 00:36:28;;;;;;;5.60;3.42;;;;;;;17.40;100.00;96410.53;5058282;28;20497;-69
2022/08/25 00:38:56;;;;;;;6.25;3.72;;;;;;;17.49;100.00;96413.75;5058405;28;20208;-70
2022/08/25 00:41:24;;;;;;;7.78;3.75;;;;;;;17.53;100.00;96405.13;5057951;28;20232;-70
2022/08/25 00:43:53;;;;;;;6.07;3.22;;;;;;;17.48;100.00;96404.16;5056959;28;20680;-70
2022/08/25 00:46:22;;;;;;;7.80;3.85;;;;;;;17.57;100.00;96403.66;5057799;28;20227;-70
2022/08/25 00:48:51;;;;;;;8.48;3.65;;;;;;;17.53;100.00;96399.78;5057785;28;20212;-70
2022/08/25 00:51:25;;;;;;;10.55;4.18;;;;;;;17.58;100.00;96396.47;5056160;28;20228;-70
2022/08/25 00:53:52;;;;;;;7.05;4.25;;;;;;;17.57;100.00;96397.53;5057899;28;20290;-70
2022/08/25 00:56:20;;;;;;;7.07;4.05;;;;;;;17.66;100.00;96397.03;5057994;28;20212;-69
2022/08/25 00:58:47;;;;;;;6.20;3.72;;;;;;;17.46;100.00;96393.69;5058422;28;20215;-70
2022/08/25 01:01:14;;;;;;;8.38;4.47;;;;;;;17.38;100.00;96390.47;5058403;28;20211;-70
2022/08/25 01:03:40;;;;;;;6.07;3.70;;;;;;;17.46;100.00;96401.66;5057404;28;20224;-70
2022/08/25 01:06:08;;;;;;;7.20;4.35;;;;;;;17.53;100.00;96389.13;5058255;28;20215;-70
2022/08/25 01:08:35;;;;;;;6.97;4.13;;;;;;;17.53;100.00;96389.13;5058179;28;20211;-70
2022/08/25 01:11:06;;;;;;;7.50;3.88;;;;;;;17.63;100.00;96383.31;5058020;28;20224;-70
2022/08/25 01:13:37;;;;;;;9.27;4.00;;;;;;;17.61;100.00;96388.88;5057753;28;20231;-70
2022/08/25 01:16:03;;;;;;;8.77;4.63;;;;;;;17.57;100.00;96386.88;5058110;28;20574;-70
2022/08/25 01:18:42;;;;;;;7.15;3.88;;;;;;;17.74;100.00;96394.09;5058025;28;20203;-70
2022/08/25 01:21:10;;;;;;;9.40;4.53;;;;;;;17.63;100.00;96383.31;5057643;28;20601;-70
2022/08/25 01:23:37;;;;;;;9.15;4.32;;;;;;;17.51;100.00;96379.72;5057235;28;20232;-70
2022/08/25 01:26:10;;;;;;;9.77;4.75;;;;;;;17.59;100.00;96380.28;5057488;28;20317;-70
2022/08/25 01:29:19;;;;;;;9.90;4.90;;;;;;;17.42;100.00;96371.16;5057814;28;20204;-70
2022/08/25 01:31:24;;;;;;;9.20;5.00;;;;;;;17.29;100.00;96373.94;5057598;28;20216;-70
2022/08/25 01:33:51;;;;;;;12.88;5.35;;;;;;;17.40;100.00;96370.59;5056782;28;20220;-70
2022/08/25 01:36:19;;;;;;;10.07;5.82;;;;;;;17.39;100.00;96374.28;5057257;28;21103;-70
2022/08/25 01:38:45;;;;;;;12.73;4.90;;;;;;;17.42;100.00;96378.34;5057654;28;20200;-70
2022/08/25 01:41:12;;;;;;;9.95;5.20;;;;;;;17.37;100.00;96379.00;5057339;28;20200;-69
2022/08/25 01:43:38;;;;;;;11.10;5.15;;;;;;;17.46;100.00;96368.91;5056491;28;20227;-70
2022/08/25 01:46:05;;;;;;;12.25;5.00;;;;;;;17.51;100.00;96379.72;5056665;28;20211;-69
2022/08/25 01:48:32;;;;;;;14.05;5.57;;;;;;;17.51;100.00;96377.88;5056262;28;20352;-67
2022/08/25 01:50:58;;;;;;;15.30;5.88;;;;;;;17.50;100.00;96362.09;5056697;28;20404;-67
2022/08/25 01:53:28;;;;;;;11.10;5.82;;;;;;;17.57;100.00;96373.53;5055659;28;20243;-67
2022/08/25 01:56:00;;;;;;;13.63;6.57;;;;;;;17.44;100.00;96369.13;5057167;28;20197;-67
2022/08/25 01:58:29;;;;;;;13.70;6.03;;;;;;;17.44;100.00;96369.13;5055995;28;20232;-68
2022/08/25 02:01:00;;;;;;;12.82;6.10;;;;;;;17.55;100.00;96371.06;5056610;28;20215;-67
2022/08/25 02:03:27;;;;;;;13.73;6.35;;;;;;;17.54;100.00;96366.78;5055104;28;20553;-69
2022/08/25 02:05:55;;;;;;;12.18;6.30;;;;;;;17.47;100.00;96366.00;5056533;28;20596;-67
2022/08/25 02:08:22;;;;;;;13.70;6.57;;;;;;;17.40;100.00;96362.59;5056304;28;20200;-67
2022/08/25 02:10:51;;;;;;;12.13;6.38;;;;;;;17.34;100.00;96366.09;5056448;28;20263;-70
2022/08/25 02:13:18;;;;;;;17.25;6.95;;;;;;;17.31;100.00;96361.22;5055354;28;20232;-70
2022/08/25 02:15:49;;;;;;;12.38;6.10;;;;;;;17.45;100.00;96370.75;5056073;28;20462;-70
2022/08/25 02:18:16;;;;;;;12.68;5.95;;;;;;;17.24;100.00;96363.09;5055872;28;20282;-70
2022/08/25 02:20:42;;;;;;;13.52;6.50;;;;;;;17.21;100.00;96358.19;5056080;28;20228;-69
2022/08/25 02:23:09;;;;;;;13.00;6.80;;;;;;;17.20;100.00;96358.41;5055614;28;20224;-67
2022/08/25 02:25:37;;;;;;;13.35;6.70;;;;;;;17.17;100.00;96351.66;5055907;28;20262;-66
2022/08/25 02:28:07;;;;;;;13.55;6.32;;;;;;;17.23;100.00;96347.31;5054973;28;20604;-67
2022/08/25 02:30:34;;;;;;;14.68;7.25;;;;;;;17.08;100.00;96342.28;5055754;28;20575;-67
2022/08/25 02:33:00;;;;;;;12.82;6.22;;;;;;;17.09;100.00;96349.25;5055512;28;20623;-67
2022/08/25 02:35:28;;;;;;;14.05;6.47;;;;;;;17.15;100.00;96347.56;5056002;28;20196;-67
2022/08/25 02:37:54;;;;;;;16.13;6.70;;;;;;;16.94;100.00;96342.59;5056140;28;20215;-67
2022/08/25 02:40:21;;;;;;;13.25;6.93;;;;;;;16.84;100.00;96349.38;5055702;28;20201;-69
2022/08/25 02:42:50;;;;;;;15.38;7.72;;;;;;;16.85;100.00;96351.00;5052341;28;20236;-71
2022/08/25 02:45:18;;;;;;;17.80;6.63;;;;;;;16.88;100.00;96354.06;5055759;28;20207;-70
2022/08/25 02:47:45;;;;;;;14.02;7.35;;;;;;;16.85;100.00;96356.34;5055297;28;20212;-70
2022/08/25 02:50:12;;;;;;;17.08;7.20;;;;;;;16.95;100.00;96352.19;5055789;28;20204;-69
2022/08/25 02:52:40;;;;;;;15.35;7.28;;;;;;;16.87;100.00;96355.09;5055389;28;20259;-70
2022/08/25 02:55:11;;;;;;;14.43;7.20;;;;;;;16.93;100.00;96343.59;5055698;28;20196;-70
2022/08/25 02:57:38;;;;;;;14.63;7.57;;;;;;;16.92;100.00;96343.81;5055988;28;20212;-70
2022/08/25 03:00:05;;;;;;;12.55;6.68;;;;;;;17.02;100.00;96352.13;5056206;28;20208;-70
2022/08/25 03:02:33;;;;;;;15.52;7.38;;;;;;;16.95;100.00;96341.53;5055415;28;20788;-69
2022/08/25 03:05:00;;;;;;;17.80;7.80;;;;;;;16.93;100.00;96337.44;5055540;28;20491;-67
2022/08/25 03:07:26;;;;;;;18.42;8.15;;;;;;;16.88;100.00;96342.59;5055968;28;20665;-70
2022/08/25 03:09:53;;;;;;;16.67;8.68;;;;;;;16.79;100.00;96339.38;5055856;28;20209;-71
2022/08/25 03:12:21;;;;;;;16.90;7.78;;;;;;;16.90;100.00;96332.56;5054989;28;20224;-70
2022/08/25 03:14:47;;;;;;;19.88;8.18;;;;;;;16.95;100.00;96330.06;5056506;28;20211;-71
2022/08/25 03:17:14;;;;;;;15.27;7.75;;;;;;;16.90;100.00;96330.69;5059824;28;20553;-71
2022/08/25 03:19:42;;;;;;;17.70;9.00;;;;;;;16.96;100.00;96339.69;5059783;28;20200;-71
2022/08/25 03:22:09;;;;;;;20.83;9.02;;;;;;;17.08;100.00;96337.97;5058692;28;20478;-71
2022/08/25 03:24:35;;;;;;;21.98;9.25;;;;;;;17.24;100.00;96331.13;5059279;28;20575;-70
2022/08/25 03:27:01;;;;;;;20.52;9.52;;;;;;;17.16;100.00;96341.22;5059207;28;20521;-71
2022/08/25 03:29:31;;;;;;;20.25;9.50;;;;;;;17.31;100.00;96334.59;5059647;28;20457;-71
2022/08/25 03:32:00;;;;;;;17.20;8.98;;;;;;;17.30;100.00;96335.63;5059130;28;20240;-71
2022/08/25 03:34:28;;;;;;;19.52;9.80;;;;;;;17.17;100.00;96333.00;5058586;28;20220;-71
2022/08/25 03:36:57;;;;;;;19.05;8.95;;;;;;;17.19;100.00;96338.91;5059604;28;20216;-71
2022/08/25 03:39:25;;;;;;;18.70;9.07;;;;;;;17.25;100.00;96338.09;5059702;28;20208;-71
2022/08/25 03:41:52;;;;;;;19.83;8.88;;;;;;;17.26;100.00;96342.41;5059940;28;20204;-72
2022/08/25 03:44:21;;;;;;;16.63;8.45;;;;;;;17.26;100.00;96339.75;5058912;28;20224;-72
2022/08/25 03:46:50;;;;;;;20.80;8.93;;;;;;;17.30;100.00;96340.94;5059582;28;20208;-72
2022/08/25 03:49:23;;;;;;;17.35;8.40;;;;;;;17.30;100.00;96340.94;5059581;28;20212;-72
2022/08/25 03:51:53;;;;;;;16.58;8.20;;;;;;;17.33;100.00;96343.16;5059982;28;20220;-71
2022/08/25 03:54:24;;;;;;;16.55;8.77;;;;;;;17.16;100.00;96334.03;5058613;28;20251;-71
2022/08/25 03:56:50;;;;;;;18.25;8.95;;;;;;;17.12;100.00;96340.03;5059728;28;20208;-71
2022/08/25 03:59:17;;;;;;;21.55;8.60;;;;;;;17.15;100.00;96334.25;5058735;28;20201;-70
2022/08/25 04:01:45;;;;;;;18.98;8.68;;;;;;;17.12;100.00;96332.84;5057125;28;20208;-70
2022/08/25 04:04:13;;;;;;;15.13;8.18;;;;;;;17.18;100.00;96339.97;5058292;28;20232;-68
2022/08/25 04:06:41;;;;;;;20.02;8.65;;;;;;;17.00;100.00;96335.56;5059217;28;20207;-69
2022/08/25 04:09:09;;;;;;;11.95;6.25;;;;;;;16.98;100.00;96340.28;5059368;28;20201;-69
2022/08/25 04:11:37;;;;;;;14.57;7.60;;;;;;;16.91;100.00;96342.19;5058562;28;20571;-68
2022/08/25 04:14:04;;;;;;;14.98;7.45;;;;;;;16.75;100.00;96346.16;5058516;28;20228;-69
2022/08/25 04:16:33;;;;;;;18.88;8.63;;;;;;;16.71;100.00;96350.28;5058906;28;20232;-68
2022/08/25 04:19:02;;;;;;;17.77;8.35;;;;;;;16.70;100.00;96343.31;5058868;28;20707;-69
2022/08/25 04:21:28;;;;;;;17.55;8.48;;;;;;;16.74;100.00;96346.38;5059112;28;20211;-68
2022/08/25 04:23:56;;;;;;;16.33;8.10;;;;;;;16.65;100.00;96339.66;5058128;28;20217;-70
2022/08/25 04:26:25;;;;;;;15.20;7.95;;;;;;;16.64;100.00;96346.81;5058657;28;20200;-69
2022/08/25 04:28:54;;;;;;;19.80;8.20;;;;;;;16.67;100.00;96348.22;5058923;28;20289;-68
2022/08/25 04:31:21;;;;;;;17.50;8.45;;;;;;;16.74;100.00;96351.69;5058727;28;20217;-69
2022/08/25 04:33:48;;;;;;;21.08;8.95;;;;;;;16.72;100.00;96356.41;5057947;28;20739;-69
2022/08/25 04:36:17;;;;;;;14.27;7.72;;;;;;;16.69;100.00;96349.66;5058678;28;20205;-69
2022/08/25 04:38:45;;;;;;;19.75;8.32;;;;;;;16.75;100.00;96350.66;5058649;28;20208;-69
2022/08/25 04:41:14;;;;;;;17.70;8.30;;;;;;;16.81;100.00;96341.81;5058836;28;20201;-68
2022/08/25 04:43:42;;;;;;;18.55;9.07;;;;;;;16.88;100.00;96343.44;5057454;28;20307;-69
2022/08/25 04:46:12;;;;;;;17.95;7.95;;;;;;;16.87;100.00;96348.97;5058250;28;21002;-69
2022/08/25 04:48:39;;;;;;;14.30;7.38;;;;;;;16.79;100.00;96343.88;5058314;28;20388;-69
2022/08/25 04:51:07;;;;;;;17.10;8.98;;;;;;;16.82;100.00;96340.81;5058054;28;20309;-69
2022/08/25 04:53:34;;;;;;;19.00;8.02;;;;;;;16.87;100.00;96339.13;5057812;28;20235;-68
2022/08/25 04:56:01;;;;;;;19.58;8.35;;;;;;;16.84;100.00;96352.03;5058520;28;20212;-69
2022/08/25 04:58:27;;;;;;;15.68;7.72;;;;;;;16.84;100.00;96354.69;5058271;28;20205;-69
2022/08/25 05:01:01;;;;;;;17.38;8.02;;;;;;;17.02;100.00;96354.81;5058738;28;20624;-69
2022/08/25 05:03:29;;;;;;;20.10;8.02;;;;;;;17.04;100.00;96350.91;5056951;28;20220;-68
2022/08/25 05:05:56;;;;;;;19.27;7.88;;;;;;;16.98;100.00;96341.13;5058371;28;20773;-69
2022/08/25 05:08:22;;;;;;;17.65;9.02;;;;;;;17.08;100.00;96345.97;5058465;28;20197;-69
2022/08/25 05:10:52;;;;;;;17.92;9.07;;;;;;;17.21;100.00;96352.84;5058493;28;20219;-69
2022/08/25 05:13:18;;;;;;;21.70;8.48;;;;;;;17.09;100.00;96356.41;5057493;28;20641;-69
2022/08/25 05:15:52;;;;;;;17.42;8.65;;;;;;;17.22;100.00;96351.00;5058019;28;20204;-70
2022/08/25 05:18:20;;;;;;;21.67;9.10;;;;;;;17.26;100.00;96353.06;5057634;28;20205;-70
2022/08/25 05:20:47;;;;;;;19.50;8.15;;;;;;;17.28;100.00;96347.50;5057180;28;20208;-70
2022/08/25 05:23:14;;;;;;;18.35;7.95;;;;;;;17.26;100.00;96350.41;5057034;28;20225;-69
2022/08/25 05:25:41;;;;;;;15.48;6.75;;;;;;;17.28;100.00;96348.31;5057252;28;20673;-69
2022/08/25 05:28:08;;;;;;;18.30;8.57;;;;;;;17.28;100.00;96353.63;5058248;28;20215;-69
2022/08/25 05:30:38;;;;;;;23.08;9.70;;;;;;;17.52;100.00;96349.38;5058077;28;20232;-70
2022/08/25 05:33:04;;;;;;;17.40;9.15;;;;;;;17.50;100.00;96360.28;5056444;28;20274;-70
2022/08/25 05:35:31;;;;;;;19.33;9.18;;;;;;;17.58;100.00;96348.50;5058438;28;20204;-69
2022/08/25 05:37:59;;;;;;;19.50;9.10;;;;;;;17.74;100.00;96343.44;5056923;28;20207;-70
2022/08/25 05:40:27;;;;;;;15.18;8.13;;;;;;;17.76;100.00;96344.06;5057103;28;20200;-70
2022/08/25 05:42:54;;;;;;;21.08;9.27;;;;;;;17.84;100.00;96344.59;5057052;28;20647;-69
2022/08/25 05:45:21;;;;;;;18.90;8.63;;;;;;;17.90;100.00;96333.06;5056667;28;20297;-70
2022/08/25 05:47:47;;;;;;;17.02;9.02;;;;;;;17.98;100.00;96334.63;5057915;28;20208;-70
2022/08/25 05:50:15;;;;;;;22.42;9.48;;;;;;;18.08;100.00;96329.59;5057173;28;20204;-70
2022/08/25 05:52:41;;;;;;;19.15;9.27;;;;;;;18.13;100.00;96327.09;5056631;28;20239;-70
2022/08/25 05:55:10;;;;;;;19.92;9.70;;;;;;;18.41;100.00;96333.56;5056749;28;20204;-70
2022/08/25 05:57:37;;;;;;;23.00;9.23;;;;;;;18.43;100.00;96326.97;5056841;28;20215;-70
2022/08/25 06:00:05;;;;;;;17.20;7.95;;;;;;;18.56;100.00;96318.81;5057273;28;20215;-70
2022/08/25 06:02:40;;;;;;;19.00;8.35;;;;;;;18.59;100.00;96315.69;5056811;28;20252;-70
2022/08/25 06:05:07;;;;;;;22.73;9.40;;;;;;;18.69;100.00;96318.66;5057236;28;20212;-70
2022/08/25 06:07:35;;;;;;;21.23;10.35;;;;;;;18.82;100.00;96323.00;5057075;28;20232;-70
2022/08/25 06:10:01;;;;;;;22.40;9.27;;;;;;;18.87;100.00;96318.63;5056893;28;20200;-70
2022/08/25 06:12:31;;;;;;;19.50;10.00;;;;;;;18.93;100.00;96320.38;5055963;28;20246;-70
2022/08/25 06:14:58;;;;;;;19.17;10.02;;;;;;;19.04;100.00;96324.94;5056729;28;20209;-70
2022/08/25 06:17:24;;;;;;;20.33;9.85;;;;;;;19.08;100.00;96324.31;5056625;28;20604;-70
2022/08/25 06:19:51;;;;;;;21.42;9.55;;;;;;;19.22;100.00;96324.94;5056579;28;20208;-70
2022/08/25 06:22:17;;;;;;;23.17;10.60;;;;;;;19.36;100.00;96321.84;5056098;28;20200;-70
2022/08/25 06:24:44;;;;;;;19.77;8.98;;;;;;;19.40;100.00;96316.84;5057164;28;20290;-70
2022/08/25 06:27:10;;;;;;;19.75;8.80;;;;;;;19.43;100.00;96321.75;5056574;28;20208;-70
2022/08/25 06:29:38;;;;;;;19.63;9.38;;;;;;;19.60;100.00;96316.31;5056928;28;20205;-70
2022/08/25 06:32:05;;;;;;;16.58;8.52;;;;;;;19.65;100.00;96316.44;5056345;28;20235;-71
2022/08/25 06:34:32;;;;;;;16.88;9.10;;;;;;;19.73;100.00;96316.09;5056440;28;20664;-69
2022/08/25 06:36:59;;;;;;;19.52;9.30;;;;;;;19.75;100.00;96311.31;5056893;28;20204;-69
2022/08/25 06:39:26;;;;;;;19.75;9.38;;;;;;;19.63;100.00;96307.81;5056519;28;20691;-69
2022/08/25 06:41:53;;;;;;;22.10;9.35;;;;;;;19.74;100.00;96314.22;5056582;28;20197;-69
2022/08/25 06:44:20;;;;;;;17.88;8.55;;;;;;;19.75;100.00;96311.31;5056018;28;21229;-69
2022/08/25 06:46:49;;;;;;;19.67;9.35;;;;;;;20.01;100.00;96315.41;5056943;28;20215;-69
2022/08/25 06:49:15;;;;;;;21.30;9.40;;;;;;;19.77;100.00;96309.22;5056770;28;20201;-70
2022/08/25 06:51:42;;;;;;;17.17;8.90;;;;;;;19.90;100.00;96303.66;5060493;28;20224;-70
2022/08/25 06:54:09;;;;;;;19.35;9.00;;;;;;;20.09;100.00;96301.72;5059942;28;20228;-70
2022/08/25 06:56:36;;;;;;;18.63;8.98;;;;;;;20.13;100.00;96300.19;5060304;28;20227;-69
2022/08/25 06:59:05;;;;;;;16.13;8.55;;;;;;;20.17;100.00;96299.47;5060314;28;20208;-69
2022/08/25 07:01:32;;;;;;;16.40;8.25;;;;;;;20.18;100.00;96303.00;5060561;28;20220;-70
2022/08/25 07:04:01;;;;;;;16.15;8.45;;;;;;;20.27;100.00;96297.03;5059975;28;20228;-70
2022/08/25 07:06:30;;;;;;;16.52;7.97;;;;;;;20.31;100.00;96299.00;5060215;28;20197;-70
2022/08/25 07:08:57;;;;;;;16.77;8.70;;;;;;;20.34;100.00;96305.72;5060677;28;20246;-70
2022/08/25 07:11:23;;;;;;;19.63;8.82;;;;;;;20.48;100.00;96299.06;5060610;28;20200;-70
2022/08/25 07:13:51;;;;;;;15.82;8.27;;;;;;;20.49;100.00;96300.72;5059867;28;20232;-70
2022/08/25 07:16:19;;;;;;;18.08;8.38;;;;;;;20.61;100.00;96304.16;5060161;28;20292;-70
2022/08/25 07:18:46;;;;;;;18.38;8.63;;;;;;;20.75;100.00;96308.22;5060510;28;20224;-70
2022/08/25 07:21:15;;;;;;;16.80;8.35;;;;;;;20.89;100.00;96305.06;5059732;28;20219;-70
2022/08/25 07:23:41;;;;;;;16.35;8.25;;;;;;;20.98;100.00;96304.41;5059373;28;20224;-70
2022/08/25 07:26:10;;;;;;;15.30;7.45;;;;;;;21.23;100.00;96302.22;5060063;28;20208;-69
2022/08/25 07:28:37;;;;;;;14.93;6.82;;;;;;;21.38;98.69;96305.16;5059899;28;20201;-69
2022/08/25 07:31:04;;;;;;;14.68;7.55;;;;;;;21.55;99.62;96309.53;5059883;28;20201;-69
2022/08/25 07:33:30;;;;;;;14.10;6.88;;;;;;;21.69;96.81;96307.31;5058905;28;20229;-69
2022/08/25 07:35:56;;;;;;;11.35;6.53;;;;;;;21.82;95.60;96309.69;5059820;28;20200;-69
2022/08/25 07:38:24;;;;;;;15.20;7.47;;;;;;;21.98;95.86;96301.59;5059322;28;20692;-69
2022/08/25 07:40:54;;;;;;;16.02;7.82;;;;;;;22.02;94.85;96296.56;5059454;28;20976;-69
2022/08/25 07:43:21;;;;;;;12.15;6.47;;;;;;;22.04;95.50;96300.63;5058309;28;20337;-69
2022/08/25 07:45:48;;;;;;;12.27;6.50;;;;;;;22.12;94.37;96298.34;5059270;28;20216;-69
2022/08/25 07:48:18;;;;;;;11.55;6.20;;;;;;;22.19;92.87;96300.88;5057991;28;20541;-69
2022/08/25 07:50:46;;;;;;;11.35;6.63;;;;;;;22.24;93.24;96298.25;5059677;28;20196;-69
2022/08/25 07:53:15;;;;;;;10.68;6.30;;;;;;;22.36;92.48;96302.47;5058057;28;20990;-68
2022/08/25 07:55:43;;;;;;;11.27;6.00;;;;;;;22.36;92.16;96294.41;5058839;28;20208;-69
2022/08/25 07:58:10;;;;;;;12.82;6.18;;;;;;;22.32;91.86;96301.34;5058181;28;20289;-69
2022/08/25 08:00:38;;;;;;;13.30;6.53;;;;;;;22.45;91.16;96289.44;5057799;28;20205;-68
2022/08/25 08:03:06;;;;;;;12.07;6.07;;;;;;;22.47;92.18;96301.56;5057839;28;20228;-67
2022/08/25 08:05:33;;;;;;;13.05;6.53;;;;;;;22.40;89.83;96298.25;5058031;28;20197;-67
2022/08/25 08:08:01;;;;;;;10.57;6.07;;;;;;;22.49;90.38;96294.06;5057587;28;20260;-67
2022/08/25 08:10:27;;;;;;;10.80;5.88;;;;;;;22.48;93.42;96292.44;5056073;28;20673;-66
2022/08/25 08:12:55;;;;;;;8.77;5.22;;;;;;;22.53;91.70;96291.69;5057417;28;20233;-67
2022/08/25 08:15:22;;;;;;;10.18;5.70;;;;;;;22.58;90.03;96294.44;5057491;28;20691;-67
2022/08/25 08:17:48;;;;;;;10.43;5.55;;;;;;;22.56;90.71;96296.56;5056364;28;20208;-68
2022/08/25 08:20:16;;;;;;;9.68;5.43;;;;;;;22.64;89.84;96301.50;5056991;28;20201;-67
2022/08/25 08:22:44;;;;;;;11.80;6.03;;;;;;;22.77;89.58;96296.56;5057011;28;20256;-67
2022/08/25 08:25:11;;;;;;;11.60;5.57;;;;;;;23.07;88.14;96297.75;5058244;28;20208;-67
2022/08/25 08:27:38;;;;;;;11.63;5.63;;;;;;;23.04;90.69;96308.19;5057823;28;20211;-69
2022/08/25 08:30:07;;;;;;;9.73;5.70;;;;;;;23.15;89.15;96294.59;5057719;28;20209;-70
2022/08/25 08:32:33;;;;;;;9.57;5.35;;;;;;;23.29;90.01;96303.88;5056937;28;20251;-69
2022/08/25 08:35:00;;;;;;;12.27;5.32;;;;;;;23.42;91.12;96290.84;5057259;28;20280;-69
2022/08/25 08:37:26;;;;;;;9.10;5.28;;;;;;;23.43;86.42;96295.16;5057589;28;20290;-68
2022/08/25 08:39:53;;;;;;;10.93;5.45;;;;;;;23.47;87.46;96295.44;5057505;28;20215;-69
2022/08/25 08:42:37;;;;;;;9.85;5.75;;;;;;;23.86;86.62;96302.28;5056997;28;20208;-69
2022/08/25 08:45:23;;;;;;;9.52;5.30;;;;;;;23.80;86.23;96298.72;5057323;28;20205;-69
2022/08/25 08:47:59;;;;;;;10.75;5.80;;;;;;;23.71;88.56;96299.47;5057684;28;20215;-68
2022/08/25 08:50:34;;;;;;;8.63;5.03;;;;;;;23.99;88.39;96291.88;5057448;28;20207;-67
2022/08/25 08:53:07;;;;;;;11.55;6.07;;;;;;;23.92;84.85;96286.72;5019330;28;1067318;-68
2022/08/25 08:55:37;;;;;;;21.45;7.47;;;;;;;23.93;87.52;96292.94;5059048;28;20203;-68
2022/08/25 08:58:09;;;;;;;11.60;6.10;;;;;;;24.17;87.04;96288.78;5058158;28;20204;-67
2022/08/25 09:00:43;;;;;;;10.65;4.97;;;;;;;24.30;85.22;96282.91;5058348;28;20584;-67
2022/08/25 09:03:16;;;;;;;7.80;4.75;;;;;;;24.35;84.71;96280.25;5057097;28;20235;-68
2022/08/25 09:05:46;;;;;;;8.25;4.95;;;;;;;24.55;81.17;96273.13;5057733;28;20219;-67
2022/08/25 09:08:15;;;;;;;7.93;4.85;;;;;;;24.51;83.93;96280.13;5058363;28;20209;-68
2022/08/25 09:10:53;;;;;;;9.32;5.15;;;;;;;24.51;81.65;96280.13;5058029;28;20668;-68
2022/08/25 09:13:33;;;;;;;7.57;5.13;;;;;;;24.48;82.38;96279.81;5056185;28;20708;-68
2022/08/25 09:19:03;;;;;;;9.38;4.80;;;;;;;24.50;80.14;96272.31;5057693;28;20215;-68
2022/08/25 09:21:36;;;;;;;9.55;5.03;;;;;;;24.75;80.69;96276.72;5057211;28;20195;-67
2022/08/25 09:24:21;;;;;;;6.63;4.45;;;;;;;24.75;78.76;96270.53;5057102;28;20299;-68
2022/08/25 09:27:03;;;;;;;6.22;4.07;;;;;;;25.03;77.49;96267.38;5057926;28;20200;-67
2022/08/25 09:29:53;;;;;;;7.72;4.47;;;;;;;25.08;76.28;96267.44;5057466;28;20280;-67
2022/08/25 09:32:22;;;;;;;6.80;4.63;;;;;;;25.20;76.33;96263.41;5056318;28;20196;-67
2022/08/25 09:34:50;;;;;;;6.75;4.38;;;;;;;25.17;78.73;96260.44;5057482;28;20735;-69
2022/08/25 09:37:17;;;;;;;9.13;4.70;;;;;;;25.05;75.16;96259.84;5057380;28;20204;-68
2022/08/25 09:39:43;;;;;;;6.90;4.32;;;;;;;25.15;75.71;96254.50;5057532;28;20212;-69
2022/08/25 09:42:10;;;;;;;9.57;4.70;;;;;;;25.16;81.27;96251.53;5055808;28;20231;-69
2022/08/25 09:44:42;;;;;;;10.13;4.80;;;;;;;25.25;77.51;96249.91;5055873;28;20196;-69
2022/08/25 09:47:20;;;;;;;10.18;4.60;;;;;;;25.20;77.64;96239.13;5057317;28;20855;-70
2022/08/25 09:49:51;;;;;;;8.25;4.22;;;;;;;25.22;75.62;96245.06;5057490;28;20211;-69
2022/08/25 09:52:41;;;;;;;7.38;4.32;;;;;;;25.43;73.96;96235.91;5056366;28;20291;-69
2022/08/25 09:55:33;;;;;;;7.43;4.53;;;;;;;26.03;72.62;96234.00;5052811;28;20211;-69
2022/08/25 09:57:59;;;;;;;8.32;4.53;;;;;;;26.13;71.66;96234.00;5042388;28;20204;-68
2022/08/25 10:00:29;;;;;;;7.63;4.32;;;;;;;25.98;74.00;96237.53;5057278;28;20204;-69
2022/08/25 10:03:06;;;;;;;6.95;4.05;;;;;;;26.44;73.27;96230.97;5056463;28;20213;-69
2022/08/25 10:05:37;;;;;;;6.78;4.30;;;;;;;25.94;72.60;96233.78;5056559;28;20610;-69
2022/08/25 10:08:12;;;;;;;6.72;4.45;;;;;;;25.79;72.29;96226.75;5056788;28;20236;-69
2022/08/25 10:10:44;;;;;;;6.50;4.35;;;;;;;25.93;73.25;96231.34;5057316;28;20215;-69
2022/08/25 10:13:14;;;;;;;5.75;3.92;;;;;;;25.70;72.60;96229.22;5056152;28;20232;-69
2022/08/25 10:15:41;;;;;;;7.63;4.20;;;;;;;25.70;75.89;96222.94;5057125;28;20219;-69
2022/08/25 10:18:24;;;;;;;6.57;4.28;;;;;;;25.84;71.79;96222.97;5056657;28;20204;-68
2022/08/25 10:21:04;;;;;;;11.40;4.22;;;;;;;25.94;74.44;96216.75;5057060;28;20211;-69
2022/08/25 10:23:33;;;;;;;7.50;4.18;;;;;;;26.12;73.11;96211.59;5056042;28;20227;-69
2022/08/25 10:26:03;;;;;;;7.45;4.32;;;;;;;26.06;72.90;96218.06;5056694;28;20197;-69
2022/08/25 10:28:35;;;;;;;6.57;4.40;;;;;;;26.16;73.07;96201.84;5056605;28;20377;-69
2022/08/25 10:31:12;;;;;;;6.10;3.95;;;;;;;26.22;71.40;96208.88;5056628;28;20210;-69
2022/08/25 10:33:50;;;;;;;10.65;4.20;;;;;;;26.08;72.73;96207.00;5056082;28;20261;-69
2022/08/25 10:36:22;;;;;;;6.43;3.78;;;;;;;26.14;70.24;96203.22;5056855;28;20204;-69
2022/08/25 10:38:54;;;;;;;5.20;3.38;;;;;;;26.52;68.29;96201.47;5056569;28;21006;-69
2022/08/25 10:41:34;;;;;;;6.28;4.18;;;;;;;27.08;65.89;96198.22;5056950;28;20204;-69
2022/08/25 10:47:06;;;;;;;5.50;3.83;;;;;;;26.70;68.95;96189.25;5056278;28;20304;-69
2022/08/25 10:49:41;;;;;;;4.93;3.42;;;;;;;26.76;69.49;96190.84;5056350;28;21070;-69
2022/08/25 10:52:16;;;;;;;5.65;4.05;;;;;;;27.34;69.16;96185.31;5055616;28;20208;-69
2022/08/25 10:54:49;;;;;;;7.32;3.50;;;;;;;27.31;68.71;96181.28;5056739;28;20263;-69
2022/08/25 10:57:23;;;;;;;5.35;3.42;;;;;;;27.12;63.96;96182.25;5056353;28;20219;-69
2022/08/25 10:59:58;;;;;;;5.20;3.33;;;;;;;26.94;66.67;96180.16;5055695;28;20325;-69
2022/08/25 11:02:57;;;;;;;7.22;3.35;;;;;;;27.58;66.86;96170.81;5055652;28;20277;-69
2022/08/25 11:05:28;;;;;;;7.72;3.70;;;;;;;27.30;68.34;96174.28;5055650;28;20282;-69
2022/08/25 11:08:04;;;;;;;5.22;3.40;;;;;;;27.40;66.43;96179.59;5056398;28;20204;-69
2022/08/25 11:10:39;;;;;;;5.35;3.50;;;;;;;26.91;64.20;96179.91;5056206;28;20196;-70
2022/08/25 11:13:14;;;;;;;7.97;3.60;;;;;;;26.99;66.15;96166.66;5055686;28;20228;-71
2022/08/25 11:15:53;;;;;;;6.65;3.75;;;;;;;27.20;66.35;96179.75;5056365;28;20308;-70
2022/08/25 11:18:21;;;;;;;5.72;3.70;;;;;;;27.30;65.77;96174.28;5056535;28;21532;-71
2022/08/25 11:20:56;;;;;;;7.22;3.28;;;;;;;27.22;61.98;96177.56;5056583;28;20200;-70
2022/08/25 11:23:28;;;;;;;5.45;3.58;;;;;;;27.57;64.58;96163.81;5055339;28;20220;-69
2022/08/25 11:26:00;;;;;;;6.13;3.40;;;;;;;27.35;65.41;96174.22;5056344;28;20205;-70
2022/08/25 11:28:35;;;;;;;4.38;3.30;;;;;;;27.34;67.67;96172.63;5055703;28;20292;-69
2022/08/25 11:31:03;;;;;;;5.55;3.45;;;;;;;27.44;64.14;96169.81;5056112;28;20204;-70
2022/08/25 11:33:31;;;;;;;4.97;3.53;;;;;;;27.61;63.66;96169.44;5055111;28;20235;-70
2022/08/25 11:36:00;;;;;;;6.45;3.65;;;;;;;28.03;64.08;96175.78;5057499;28;20200;-70
2022/08/25 11:38:45;;;;;;;6.35;3.58;;;;;;;28.12;66.26;96171.34;5059784;28;20201;-71